Terminal Aerodrome Forecast
Issued by NWS Duluth, MN

Home | Current Version | Previous Version | Text Only | Print | Product List | Glossary On
Versions: 1 2 3 4 5 6 7 8 9 10 11 12 13 14
000
FTUS43 KDLH 060500
TAFINL
TAF
KINL 060530Z 0606/0706 14005KT P6SM BKN120
     FM061700 14009KT P6SM SCT030 BKN060
     FM062000 15011KT P6SM -SHRA BKN035 OVC050
     FM070100 13010KT P6SM SCT050 BKN120=

USA.gov is the U.S. government's official web portal to all federal, state and local government web resources and services.